sensor_id;sensor_type;location;lat;lon;timestamp;pressure;altitude;pressure_sealevel;temperature;humidity
63287;BME280;49410;55.708;37.522;2022-09-25T00:01:11;97473.06;;;9.05;nan
63287;BME280;49410;55.708;37.522;2022-09-25T00:03:37;97477.22;;;9.14;nan
63287;BME280;49410;55.708;37.522;2022-09-25T00:06:06;97477.44;;;9.12;nan
63287;BME280;49410;55.708;37.522;2022-09-25T00:08:32;97498.84;;;9.15;nan
63287;BME280;49410;55.708;37.522;2022-09-25T00:10:58;97484.97;;;9.17;nan
63287;BME280;49410;55.708;37.522;2022-09-25T00:13:24;97467.38;;;9.06;nan
63287;BME280;49410;55.708;37.522;2022-09-25T00:15:53;97477.84;;;9.09;nan
63287;BME280;49410;55.708;37.522;2022-09-25T00:18:20;97486.84;;;9.16;nan
63287;BME280;49410;55.708;37.522;2022-09-25T00:21:08;97492.53;;;9.15;nan
63287;BME280;49410;55.708;37.522;2022-09-25T00:23:34;97490.84;;;9.14;nan
63287;BME280;49410;55.708;37.522;2022-09-25T00:26:01;97484.75;;;9.12;nan
63287;BME280;49410;55.708;37.522;2022-09-25T00:28:27;97482.50;;;9.09;nan
63287;BME280;49410;55.708;37.522;2022-09-25T00:30:55;97483.31;;;9.09;nan
63287;BME280;49410;55.708;37.522;2022-09-25T00:33:21;97498.84;;;9.15;nan
63287;BME280;49410;55.708;37.522;2022-09-25T00:35:46;97479.97;;;9.07;nan
63287;BME280;49410;55.708;37.522;2022-09-25T00:38:12;97489.19;;;9.06;nan
63287;BME280;49410;55.708;37.522;2022-09-25T00:40:37;97491.47;;;9.16;nan
63287;BME280;49410;55.708;37.522;2022-09-25T00:43:04;97492.53;;;9.15;nan
63287;BME280;49410;55.708;37.522;2022-09-25T00:45:33;97460.94;;;8.94;nan
63287;BME280;49410;55.708;37.522;2022-09-25T00:48:02;97483.94;;;9.11;nan
63287;BME280;49410;55.708;37.522;2022-09-25T00:53:18;97497.16;;;9.14;nan
63287;BME280;49410;55.708;37.522;2022-09-25T00:55:43;97486.25;;;9.14;nan
63287;BME280;49410;55.708;37.522;2022-09-25T00:58:11;97493.78;;;9.19;nan
63287;BME280;49410;55.708;37.522;2022-09-25T01:00:39;97494.84;;;9.18;nan
63287;BME280;49410;55.708;37.522;2022-09-25T01:03:06;97494.38;;;9.21;nan
63287;BME280;49410;55.708;37.522;2022-09-25T01:05:35;97500.91;;;9.20;nan
63287;BME280;49410;55.708;37.522;2022-09-25T01:08:04;97503.66;;;9.20;nan
63287;BME280;49410;55.708;37.522;2022-09-25T01:10:31;97500.06;;;9.20;nan
63287;BME280;49410;55.708;37.522;2022-09-25T01:12:58;97499.25;;;9.19;nan
63287;BME280;49410;55.708;37.522;2022-09-25T01:19:03;97503.84;;;9.19;nan
63287;BME280;49410;55.708;37.522;2022-09-25T01:30:07;97501.13;;;9.12;nan
63287;BME280;49410;55.708;37.522;2022-09-25T01:37:48;97513.06;;;9.17;nan
63287;BME280;49410;55.708;37.522;2022-09-25T01:40:26;97512.03;;;9.19;nan
63287;BME280;49410;55.708;37.522;2022-09-25T01:43:11;97512.69;;;9.07;nan
63287;BME280;49410;55.708;37.522;2022-09-25T01:45:51;97507.63;;;9.11;nan
63287;BME280;49410;55.708;37.522;2022-09-25T01:48:23;97526.69;;;9.17;nan
63287;BME280;49410;55.708;37.522;2022-09-25T01:51:04;97518.13;;;9.14;nan
63287;BME280;49410;55.708;37.522;2022-09-25T01:53:39;97531.09;;;9.19;nan
63287;BME280;49410;55.708;37.522;2022-09-25T01:56:13;97508.72;;;9.10;nan
63287;BME280;49410;55.708;37.522;2022-09-25T01:58:46;97525.25;;;9.15;nan
63287;BME280;49410;55.708;37.522;2022-09-25T02:01:19;97532.38;;;9.16;nan
63287;BME280;49410;55.708;37.522;2022-09-25T02:04:21;97538.47;;;9.18;nan
63287;BME280;49410;55.708;37.522;2022-09-25T02:06:50;97522.34;;;9.10;nan
63287;BME280;49410;55.708;37.522;2022-09-25T02:09:25;97543.28;;;9.16;nan
63287;BME280;49410;55.708;37.522;2022-09-25T02:11:55;97537.19;;;9.14;nan
63287;BME280;49410;55.708;37.522;2022-09-25T02:14:47;97538.25;;;9.13;nan
63287;BME280;49410;55.708;37.522;2022-09-25T02:17:16;97543.50;;;9.14;nan
63287;BME280;49410;55.708;37.522;2022-09-25T02:20:03;97531.34;;;9.04;nan
63287;BME280;49410;55.708;37.522;2022-09-25T02:22:50;97542.88;;;9.12;nan
63287;BME280;49410;55.708;37.522;2022-09-25T02:25:39;97550.44;;;9.10;nan
63287;BME280;49410;55.708;37.522;2022-09-25T02:28:06;97545.19;;;9.09;nan
63287;BME280;49410;55.708;37.522;2022-09-25T02:30:32;97537.66;;;9.04;nan
63287;BME280;49410;55.708;37.522;2022-09-25T02:32:58;97534.06;;;9.10;nan
63287;BME280;49410;55.708;37.522;2022-09-25T02:35:24;97550.66;;;9.15;nan
63287;BME280;49410;55.708;37.522;2022-09-25T02:37:51;97528.63;;;9.04;nan
63287;BME280;49410;55.708;37.522;2022-09-25T02:40:18;97540.97;;;9.13;nan
63287;BME280;49410;55.708;37.522;2022-09-25T02:46:12;97549.78;;;9.15;nan
63287;BME280;49410;55.708;37.522;2022-09-25T02:51:28;97559.66;;;9.16;nan
63287;BME280;49410;55.708;37.522;2022-09-25T02:54:15;97538.72;;;9.03;nan
63287;BME280;49410;55.708;37.522;2022-09-25T02:59:27;97550.44;;;9.10;nan
63287;BME280;49410;55.708;37.522;2022-09-25T03:01:54;97553.97;;;9.11;nan
63287;BME280;49410;55.708;37.522;2022-09-25T03:04:22;97561.13;;;9.12;nan
63287;BME280;49410;55.708;37.522;2022-09-25T03:06:49;97551.69;;;9.08;nan
63287;BME280;49410;55.708;37.522;2022-09-25T03:09:17;97564.88;;;9.11;nan
63287;BME280;49410;55.708;37.522;2022-09-25T03:11:45;97573.69;;;9.13;nan
63287;BME280;49410;55.708;37.522;2022-09-25T03:14:11;97583.78;;;9.12;nan
63287;BME280;49410;55.708;37.522;2022-09-25T03:16:51;97576.66;;;9.11;nan
63287;BME280;49410;55.708;37.522;2022-09-25T03:19:17;97570.56;;;9.09;nan
63287;BME280;49410;55.708;37.522;2022-09-25T03:21:47;97569.53;;;9.04;nan
63287;BME280;49410;55.708;37.522;2022-09-25T03:24:14;97593.88;;;8.92;nan
63287;BME280;49410;55.708;37.522;2022-09-25T03:26:40;97589.03;;;8.80;nan
63287;BME280;49410;55.708;37.522;2022-09-25T03:29:06;97589.03;;;8.67;nan
63287;BME280;49410;55.708;37.522;2022-09-25T03:31:32;97586.09;;;8.55;nan
63287;BME280;49410;55.708;37.522;2022-09-25T03:33:58;97579.56;;;8.43;nan
63287;BME280;49410;55.708;37.522;2022-09-25T03:36:27;97604.50;;;8.33;nan
63287;BME280;49410;55.708;37.522;2022-09-25T03:38:55;97600.06;;;8.25;nan
63287;BME280;49410;55.708;37.522;2022-09-25T03:41:25;97606.16;;;8.27;nan
63287;BME280;49410;55.708;37.522;2022-09-25T03:43:52;97610.75;;;8.33;nan
63287;BME280;49410;55.708;37.522;2022-09-25T03:46:31;97605.72;;;8.23;nan
63287;BME280;49410;55.708;37.522;2022-09-25T03:48:57;97608.91;;;8.34;nan
63287;BME280;49410;55.708;37.522;2022-09-25T03:51:24;97600.47;;;8.22;nan
63287;BME280;49410;55.708;37.522;2022-09-25T03:53:51;97607.19;;;8.26;nan
63287;BME280;49410;55.708;37.522;2022-09-25T03:56:19;97613.69;;;8.25;nan
63287;BME280;49410;55.708;37.522;2022-09-25T03:58:45;97614.09;;;8.29;nan
63287;BME280;49410;55.708;37.522;2022-09-25T04:01:11;97612.19;;;8.16;nan
63287;BME280;49410;55.708;37.522;2022-09-25T04:03:38;97628.13;;;8.26;nan
63287;BME280;49410;55.708;37.522;2022-09-25T04:06:05;97609.47;;;8.16;nan
63287;BME280;49410;55.708;37.522;2022-09-25T04:08:31;97615.34;;;8.19;nan
63287;BME280;49410;55.708;37.522;2022-09-25T04:10:57;97621.63;;;8.20;nan
63287;BME280;49410;55.708;37.522;2022-09-25T04:13:25;97634.22;;;8.28;nan
63287;BME280;49410;55.708;37.522;2022-09-25T04:15:51;97629.59;;;8.21;nan
63287;BME280;49410;55.708;37.522;2022-09-25T04:18:17;97640.91;;;8.25;nan
63287;BME280;49410;55.708;37.522;2022-09-25T04:20:43;97604.63;;;8.04;nan
63287;BME280;49410;55.708;37.522;2022-09-25T04:23:09;97630.00;;;8.18;nan
63287;BME280;49410;55.708;37.522;2022-09-25T04:25:34;97619.28;;;8.10;nan
63287;BME280;49410;55.708;37.522;2022-09-25T04:28:00;97663.72;;;8.17;nan
63287;BME280;49410;55.708;37.522;2022-09-25T04:30:27;97658.28;;;8.24;nan
63287;BME280;49410;55.708;37.522;2022-09-25T04:32:53;97654.28;;;8.20;nan
63287;BME280;49410;55.708;37.522;2022-09-25T04:35:38;97671.69;;;8.19;nan
63287;BME280;49410;55.708;37.522;2022-09-25T04:38:04;97670.00;;;8.18;nan
63287;BME280;49410;55.708;37.522;2022-09-25T04:40:30;97662.00;;;8.09;nan
63287;BME280;49410;55.708;37.522;2022-09-25T04:43:00;97665.56;;;8.10;nan
63287;BME280;49410;55.708;37.522;2022-09-25T04:45:27;97670.63;;;8.13;nan
63287;BME280;49410;55.708;37.522;2022-09-25T04:47:55;97677.97;;;8.19;nan
63287;BME280;49410;55.708;37.522;2022-09-25T04:50:23;97680.22;;;8.09;nan
63287;BME280;49410;55.708;37.522;2022-09-25T04:52:49;97685.28;;;8.12;nan
63287;BME280;49410;55.708;37.522;2022-09-25T04:55:16;97682.91;;;8.02;nan
63287;BME280;49410;55.708;37.522;2022-09-25T04:57:42;97688.88;;;7.77;nan
63287;BME280;49410;55.708;37.522;2022-09-25T05:00:08;97683.03;;;7.81;nan
63287;BME280;49410;55.708;37.522;2022-09-25T05:02:34;97683.22;;;7.79;nan
63287;BME280;49410;55.708;37.522;2022-09-25T05:05:01;97694.94;;;7.80;nan
63287;BME280;49410;55.708;37.522;2022-09-25T05:07:26;97695.13;;;7.71;nan
63287;BME280;49410;55.708;37.522;2022-09-25T05:09:51;97692.34;;;7.65;nan
63287;BME280;49410;55.708;37.522;2022-09-25T05:12:17;97690.47;;;7.65;nan
63287;BME280;49410;55.708;37.522;2022-09-25T05:14:44;97688.97;;;7.56;nan
63287;BME280;49410;55.708;37.522;2022-09-25T05:17:09;97714.91;;;7.58;nan
63287;BME280;49410;55.708;37.522;2022-09-25T05:19:36;97722.00;;;7.53;nan
63287;BME280;49410;55.708;37.522;2022-09-25T05:22:02;97718.28;;;7.60;nan
63287;BME280;49410;55.708;37.522;2022-09-25T05:24:28;97710.22;;;7.45;nan
63287;BME280;49410;55.708;37.522;2022-09-25T05:26:54;97715.50;;;7.54;nan
63287;BME280;49410;55.708;37.522;2022-09-25T05:29:19;97706.72;;;7.52;nan
63287;BME280;49410;55.708;37.522;2022-09-25T05:31:46;97716.88;;;7.43;nan
63287;BME280;49410;55.708;37.522;2022-09-25T05:34:13;97727.63;;;7.51;nan
63287;BME280;49410;55.708;37.522;2022-09-25T05:36:38;97731.84;;;7.54;nan
63287;BME280;49410;55.708;37.522;2022-09-25T05:39:04;97729.91;;;7.48;nan
63287;BME280;49410;55.708;37.522;2022-09-25T05:41:29;97718.72;;;7.36;nan
63287;BME280;49410;55.708;37.522;2022-09-25T05:43:57;97709.25;;;7.25;nan
63287;BME280;49410;55.708;37.522;2022-09-25T05:46:23;97735.31;;;7.41;nan
63287;BME280;49410;55.708;37.522;2022-09-25T05:48:48;97745.31;;;7.40;nan
63287;BME280;49410;55.708;37.522;2022-09-25T05:51:14;97753.03;;;7.37;nan
63287;BME280;49410;55.708;37.522;2022-09-25T05:53:40;97741.34;;;7.36;nan
63287;BME280;49410;55.708;37.522;2022-09-25T05:56:06;97751.41;;;7.42;nan
63287;BME280;49410;55.708;37.522;2022-09-25T05:58:32;97757.66;;;7.36;nan
63287;BME280;49410;55.708;37.522;2022-09-25T06:01:03;97751.84;;;7.46;nan
63287;BME280;49410;55.708;37.522;2022-09-25T06:03:30;97749.78;;;7.48;nan
63287;BME280;49410;55.708;37.522;2022-09-25T06:05:57;97755.06;;;7.56;nan
63287;BME280;49410;55.708;37.522;2022-09-25T06:08:23;97760.22;;;7.73;nan
63287;BME280;49410;55.708;37.522;2022-09-25T06:10:51;97743.22;;;7.64;nan
63287;BME280;49410;55.708;37.522;2022-09-25T06:13:18;97750.38;;;7.72;nan
63287;BME280;49410;55.708;37.522;2022-09-25T06:15:43;97750.41;;;7.78;nan
63287;BME280;49410;55.708;37.522;2022-09-25T06:18:09;97768.28;;;7.88;nan
63287;BME280;49410;55.708;37.522;2022-09-25T06:20:35;97774.81;;;7.93;nan
63287;BME280;49410;55.708;37.522;2022-09-25T06:23:00;97772.09;;;7.93;nan
63287;BME280;49410;55.708;37.522;2022-09-25T06:25:30;97759.06;;;7.89;nan
63287;BME280;49410;55.708;37.522;2022-09-25T06:28:00;97767.84;;;7.91;nan
63287;BME280;49410;55.708;37.522;2022-09-25T06:30:29;97775.63;;;7.94;nan
63287;BME280;49410;55.708;37.522;2022-09-25T06:33:02;97779.44;;;8.00;nan
63287;BME280;49410;55.708;37.522;2022-09-25T06:35:31;97772.97;;;8.01;nan
63287;BME280;49410;55.708;37.522;2022-09-25T06:37:58;97780.25;;;8.00;nan
63287;BME280;49410;55.708;37.522;2022-09-25T06:40:28;97786.13;;;7.97;nan
63287;BME280;49410;55.708;37.522;2022-09-25T06:43:02;97786.56;;;8.01;nan
63287;BME280;49410;55.708;37.522;2022-09-25T06:45:30;97783.59;;;7.96;nan
63287;BME280;49410;55.708;37.522;2022-09-25T06:48:24;97802.31;;;8.05;nan
63287;BME280;49410;55.708;37.522;2022-09-25T06:50:53;97790.13;;;8.01;nan
63287;BME280;49410;55.708;37.522;2022-09-25T06:53:21;97806.50;;;8.08;nan
63287;BME280;49410;55.708;37.522;2022-09-25T06:55:48;97800.84;;;8.09;nan
63287;BME280;49410;55.708;37.522;2022-09-25T06:58:16;97802.94;;;8.07;nan
63287;BME280;49410;55.708;37.522;2022-09-25T07:00:50;97806.28;;;8.03;nan
63287;BME280;49410;55.708;37.522;2022-09-25T07:03:16;97805.25;;;8.11;nan
63287;BME280;49410;55.708;37.522;2022-09-25T07:06:01;97823.53;;;8.17;nan
63287;BME280;49410;55.708;37.522;2022-09-25T07:08:27;97824.84;;;8.28;nan
63287;BME280;49410;55.708;37.522;2022-09-25T07:10:55;97814.31;;;8.18;nan
63287;BME280;49410;55.708;37.522;2022-09-25T07:13:23;97817.47;;;8.21;nan
63287;BME280;49410;55.708;37.522;2022-09-25T07:15:53;97823.69;;;8.15;nan
63287;BME280;49410;55.708;37.522;2022-09-25T07:18:20;97830.44;;;8.19;nan
63287;BME280;49410;55.708;37.522;2022-09-25T07:20:47;97830.19;;;8.14;nan
63287;BME280;49410;55.708;37.522;2022-09-25T07:23:14;97844.06;;;8.19;nan
63287;BME280;49410;55.708;37.522;2022-09-25T07:25:41;97846.38;;;8.22;nan
63287;BME280;49410;55.708;37.522;2022-09-25T07:28:07;97836.94;;;8.18;nan
63287;BME280;49410;55.708;37.522;2022-09-25T07:30:32;97842.59;;;8.17;nan
63287;BME280;49410;55.708;37.522;2022-09-25T07:32:58;97856.19;;;8.17;nan
63287;BME280;49410;55.708;37.522;2022-09-25T07:35:23;97856.97;;;8.11;nan
63287;BME280;49410;55.708;37.522;2022-09-25T07:37:54;97861.00;;;8.15;nan
63287;BME280;49410;55.708;37.522;2022-09-25T07:40:19;97866.19;;;8.09;nan
63287;BME280;49410;55.708;37.522;2022-09-25T07:42:45;97841.84;;;8.01;nan
63287;BME280;49410;55.708;37.522;2022-09-25T07:45:10;97873.56;;;8.16;nan
63287;BME280;49410;55.708;37.522;2022-09-25T07:47:36;97867.25;;;8.08;nan
63287;BME280;49410;55.708;37.522;2022-09-25T07:50:02;97861.31;;;7.98;nan
63287;BME280;49410;55.708;37.522;2022-09-25T07:52:28;97883.59;;;8.08;nan
63287;BME280;49410;55.708;37.522;2022-09-25T07:54:53;97882.50;;;8.03;nan
63287;BME280;49410;55.708;37.522;2022-09-25T07:57:18;97881.34;;;7.90;nan
63287;BME280;49410;55.708;37.522;2022-09-25T07:59:47;97895.25;;;8.02;nan
63287;BME280;49410;55.708;37.522;2022-09-25T08:02:12;97886.63;;;7.99;nan
63287;BME280;49410;55.708;37.522;2022-09-25T08:04:37;97888.91;;;7.95;nan
63287;BME280;49410;55.708;37.522;2022-09-25T08:07:03;97896.94;;;8.03;nan
63287;BME280;49410;55.708;37.522;2022-09-25T08:09:29;97906.06;;;7.96;nan
63287;BME280;49410;55.708;37.522;2022-09-25T08:11:54;97917.22;;;8.01;nan
63287;BME280;49410;55.708;37.522;2022-09-25T08:14:20;97899.94;;;7.87;nan
63287;BME280;49410;55.708;37.522;2022-09-25T08:16:47;97907.47;;;7.85;nan
63287;BME280;49410;55.708;37.522;2022-09-25T08:19:12;97910.19;;;7.85;nan
63287;BME280;49410;55.708;37.522;2022-09-25T08:21:42;97917.56;;;7.91;nan
63287;BME280;49410;55.708;37.522;2022-09-25T08:24:08;97928.25;;;7.92;nan
63287;BME280;49410;55.708;37.522;2022-09-25T08:26:35;97924.88;;;7.90;nan
63287;BME280;49410;55.708;37.522;2022-09-25T08:29:02;97929.47;;;7.90;nan
63287;BME280;49410;55.708;37.522;2022-09-25T08:31:27;97942.38;;;8.03;nan
63287;BME280;49410;55.708;37.522;2022-09-25T08:33:53;97931.44;;;7.96;nan
63287;BME280;49410;55.708;37.522;2022-09-25T08:36:19;97950.34;;;8.04;nan
63287;BME280;49410;55.708;37.522;2022-09-25T08:38:46;97949.47;;;8.04;nan
63287;BME280;49410;55.708;37.522;2022-09-25T08:44:04;97949.69;;;8.02;nan
63287;BME280;49410;55.708;37.522;2022-09-25T08:47:24;97942.16;;;8.04;nan
63287;BME280;49410;55.708;37.522;2022-09-25T08:52:30;97953.88;;;8.05;nan
63287;BME280;49410;55.708;37.522;2022-09-25T08:54:55;97973.28;;;8.17;nan
63287;BME280;49410;55.708;37.522;2022-09-25T08:57:39;97946.97;;;8.02;nan
63287;BME280;49410;55.708;37.522;2022-09-25T09:00:19;97967.63;;;8.18;nan
63287;BME280;49410;55.708;37.522;2022-09-25T09:02:51;97983.63;;;8.28;nan
63287;BME280;49410;55.708;37.522;2022-09-25T09:05:26;97991.94;;;8.20;nan
63287;BME280;49410;55.708;37.522;2022-09-25T09:12:54;97996.88;;;8.09;nan
63287;BME280;49410;55.708;37.522;2022-09-25T09:15:39;97996.47;;;8.13;nan
63287;BME280;49410;55.708;37.522;2022-09-25T09:18:22;97988.66;;;8.03;nan
63287;BME280;49410;55.708;37.522;2022-09-25T09:20:54;97992.00;;;8.05;nan
63287;BME280;49410;55.708;37.522;2022-09-25T09:23:23;97997.22;;;8.00;nan
63287;BME280;49410;55.708;37.522;2022-09-25T09:29:00;98000.13;;;7.98;nan
63287;BME280;49410;55.708;37.522;2022-09-25T09:35:26;98028.06;;;8.07;nan
63287;BME280;49410;55.708;37.522;2022-09-25T09:40:25;98034.66;;;8.19;nan
63287;BME280;49410;55.708;37.522;2022-09-25T09:45:43;98036.41;;;8.27;nan
63287;BME280;49410;55.708;37.522;2022-09-25T09:48:18;98042.50;;;8.29;nan
63287;BME280;49410;55.708;37.522;2022-09-25T09:50:55;98029.00;;;8.21;nan
63287;BME280;49410;55.708;37.522;2022-09-25T09:53:43;98046.31;;;8.35;nan
63287;BME280;49410;55.708;37.522;2022-09-25T09:56:23;98040.41;;;8.31;nan
63287;BME280;49410;55.708;37.522;2022-09-25T10:01:18;98038.19;;;8.42;nan
63287;BME280;49410;55.708;37.522;2022-09-25T10:03:46;98032.03;;;8.48;nan
63287;BME280;49410;55.708;37.522;2022-09-25T10:06:15;98049.09;;;8.63;nan
63287;BME280;49410;55.708;37.522;2022-09-25T10:08:41;98030.84;;;8.57;nan
63287;BME280;49410;55.708;37.522;2022-09-25T10:11:14;98036.50;;;8.62;nan
63287;BME280;49410;55.708;37.522;2022-09-25T10:13:42;98043.75;;;8.77;nan
63287;BME280;49410;55.708;37.522;2022-09-25T10:16:18;98030.38;;;8.82;nan
63287;BME280;49410;55.708;37.522;2022-09-25T10:18:52;98047.91;;;9.01;nan
63287;BME280;49410;55.708;37.522;2022-09-25T10:21:21;98046.69;;;9.10;nan
63287;BME280;49410;55.708;37.522;2022-09-25T10:23:50;98056.00;;;9.23;nan
63287;BME280;49410;55.708;37.522;2022-09-25T10:26:24;98056.88;;;9.30;nan
63287;BME280;49410;55.708;37.522;2022-09-25T10:28:49;98064.41;;;9.28;nan
63287;BME280;49410;55.708;37.522;2022-09-25T10:31:17;98042.72;;;9.13;nan
63287;BME280;49410;55.708;37.522;2022-09-25T10:34:03;98057.25;;;9.20;nan
63287;BME280;49410;55.708;37.522;2022-09-25T10:36:37;98065.44;;;9.20;nan
63287;BME280;49410;55.708;37.522;2022-09-25T10:39:04;98058.91;;;9.21;nan
63287;BME280;49410;55.708;37.522;2022-09-25T10:41:45;98058.75;;;9.23;nan
63287;BME280;49410;55.708;37.522;2022-09-25T10:44:29;98058.97;;;9.28;nan
63287;BME280;49410;55.708;37.522;2022-09-25T10:50:15;98079.75;;;9.29;nan
63287;BME280;49410;55.708;37.522;2022-09-25T10:55:26;98074.66;;;9.19;nan
63287;BME280;49410;55.708;37.522;2022-09-25T11:03:26;98084.50;;;9.13;nan
63287;BME280;49410;55.708;37.522;2022-09-25T11:06:09;98082.59;;;9.14;nan
63287;BME280;49410;55.708;37.522;2022-09-25T11:08:42;98082.00;;;9.19;nan
63287;BME280;49410;55.708;37.522;2022-09-25T11:11:09;98083.44;;;9.14;nan
63287;BME280;49410;55.708;37.522;2022-09-25T11:13:48;98097.75;;;9.23;nan
63287;BME280;49410;55.708;37.522;2022-09-25T11:16:14;98100.47;;;9.23;nan
63287;BME280;49410;55.708;37.522;2022-09-25T11:18:43;98094.59;;;9.20;nan
63287;BME280;49410;55.708;37.522;2022-09-25T11:21:32;98105.94;;;9.23;nan
63287;BME280;49410;55.708;37.522;2022-09-25T11:27:18;98105.06;;;9.16;nan
63287;BME280;49410;55.708;37.522;2022-09-25T11:35:11;98111.00;;;8.98;nan
63287;BME280;49410;55.708;37.522;2022-09-25T11:37:48;98112.47;;;8.94;nan
63287;BME280;49410;55.708;37.522;2022-09-25T11:43:10;98121.63;;;8.86;nan
63287;BME280;49410;55.708;37.522;2022-09-25T11:45:56;98125.81;;;8.89;nan
63287;BME280;49410;55.708;37.522;2022-09-25T11:51:04;98125.81;;;8.89;nan
63287;BME280;49410;55.708;37.522;2022-09-25T11:56:21;98117.28;;;8.70;nan
63287;BME280;49410;55.708;37.522;2022-09-25T12:18:08;98128.41;;;8.97;nan
63287;BME280;49410;55.708;37.522;2022-09-25T12:20:49;98133.47;;;9.00;nan
63287;BME280;49410;55.708;37.522;2022-09-25T12:23:26;98134.56;;;9.06;nan
63287;BME280;49410;55.708;37.522;2022-09-25T12:32:17;98131.03;;;9.12;nan
63287;BME280;49410;55.708;37.522;2022-09-25T12:37:48;98157.16;;;9.28;nan
63287;BME280;49410;55.708;37.522;2022-09-25T12:45:48;98154.00;;;9.24;nan
63287;BME280;49410;55.708;37.522;2022-09-25T12:48:32;98147.44;;;9.19;nan
63287;BME280;49410;55.708;37.522;2022-09-25T12:51:20;98164.06;;;9.24;nan
63287;BME280;49410;55.708;37.522;2022-09-25T12:53:53;98166.97;;;9.22;nan
63287;BME280;49410;55.708;37.522;2022-09-25T12:59:42;98148.59;;;9.31;nan
63287;BME280;49410;55.708;37.522;2022-09-25T13:02:00;98158.56;;;9.45;nan
63287;BME280;49410;55.708;37.522;2022-09-25T13:10:52;98167.34;;;9.47;nan
63287;BME280;49410;55.708;37.522;2022-09-25T13:13:23;98163.81;;;9.47;nan
63287;BME280;49410;55.708;37.522;2022-09-25T13:16:00;98158.94;;;9.42;nan
63287;BME280;49410;55.708;37.522;2022-09-25T13:18:29;98160.81;;;9.42;nan
63287;BME280;49410;55.708;37.522;2022-09-25T13:21:29;98167.56;;;9.46;nan
63287;BME280;49410;55.708;37.522;2022-09-25T13:23:56;98163.53;;;9.35;nan
63287;BME280;49410;55.708;37.522;2022-09-25T13:26:24;98158.19;;;9.27;nan
63287;BME280;49410;55.708;37.522;2022-09-25T13:31:28;98172.53;;;9.36;nan
63287;BME280;49410;55.708;37.522;2022-09-25T13:36:44;98170.41;;;9.31;nan
63287;BME280;49410;55.708;37.522;2022-09-25T13:39:15;98186.81;;;9.38;nan
63287;BME280;49410;55.708;37.522;2022-09-25T13:42:13;98180.34;;;9.39;nan
63287;BME280;49410;55.708;37.522;2022-09-25T13:50:15;98172.31;;;9.37;nan
63287;BME280;49410;55.708;37.522;2022-09-25T14:03:01;98184.00;;;9.53;nan
63287;BME280;49410;55.708;37.522;2022-09-25T14:05:33;98200.84;;;9.63;nan
63287;BME280;49410;55.708;37.522;2022-09-25T14:08:06;98201.69;;;9.63;nan
63287;BME280;49410;55.708;37.522;2022-09-25T14:13:54;98203.53;;;9.56;nan
63287;BME280;49410;55.708;37.522;2022-09-25T14:16:29;98206.91;;;9.58;nan
63287;BME280;49410;55.708;37.522;2022-09-25T14:18:58;98196.34;;;9.48;nan
63287;BME280;49410;55.708;37.522;2022-09-25T14:21:26;98213.78;;;9.54;nan
63287;BME280;49410;55.708;37.522;2022-09-25T14:23:57;98217.78;;;9.52;nan
63287;BME280;49410;55.708;37.522;2022-09-25T14:26:43;98209.53;;;9.45;nan
63287;BME280;49410;55.708;37.522;2022-09-25T14:29:16;98210.13;;;9.40;nan
63287;BME280;49410;55.708;37.522;2022-09-25T14:31:53;98231.38;;;9.45;nan
63287;BME280;49410;55.708;37.522;2022-09-25T14:34:27;98230.94;;;9.41;nan
63287;BME280;49410;55.708;37.522;2022-09-25T14:43:01;98222.03;;;9.32;nan
63287;BME280;49410;55.708;37.522;2022-09-25T14:48:15;98216.78;;;9.31;nan
63287;BME280;49410;55.708;37.522;2022-09-25T14:51:04;98231.91;;;9.33;nan
63287;BME280;49410;55.708;37.522;2022-09-25T14:53:40;98231.84;;;9.27;nan
63287;BME280;49410;55.708;37.522;2022-09-25T14:56:07;98242.38;;;9.30;nan
63287;BME280;49410;55.708;37.522;2022-09-25T14:58:38;98235.00;;;9.24;nan
63287;BME280;49410;55.708;37.522;2022-09-25T15:01:17;98240.19;;;9.19;nan
63287;BME280;49410;55.708;37.522;2022-09-25T15:03:47;98234.06;;;9.16;nan
63287;BME280;49410;55.708;37.522;2022-09-25T15:06:23;98241.22;;;9.17;nan
63287;BME280;49410;55.708;37.522;2022-09-25T15:08:49;98237.88;;;9.15;nan
63287;BME280;49410;55.708;37.522;2022-09-25T15:11:17;98254.03;;;9.17;nan
63287;BME280;49410;55.708;37.522;2022-09-25T15:13:44;98250.91;;;9.20;nan
63287;BME280;49410;55.708;37.522;2022-09-25T15:16:19;98256.53;;;9.19;nan
63287;BME280;49410;55.708;37.522;2022-09-25T15:19:21;98255.72;;;9.18;nan
63287;BME280;49410;55.708;37.522;2022-09-25T15:21:50;98255.88;;;9.16;nan
63287;BME280;49410;55.708;37.522;2022-09-25T15:24:19;98249.53;;;9.09;nan
63287;BME280;49410;55.708;37.522;2022-09-25T15:26:50;98247.00;;;9.08;nan
63287;BME280;49410;55.708;37.522;2022-09-25T15:29:20;98259.41;;;9.10;nan
63287;BME280;49410;55.708;37.522;2022-09-25T15:31:48;98259.19;;;9.12;nan
63287;BME280;49410;55.708;37.522;2022-09-25T15:36:45;98268.38;;;9.04;nan
63287;BME280;49410;55.708;37.522;2022-09-25T15:39:24;98268.38;;;9.04;nan
63287;BME280;49410;55.708;37.522;2022-09-25T15:41:50;98261.81;;;8.98;nan
63287;BME280;49410;55.708;37.522;2022-09-25T15:46:47;98282.41;;;9.01;nan
63287;BME280;49410;55.708;37.522;2022-09-25T15:49:16;98274.41;;;8.99;nan
63287;BME280;49410;55.708;37.522;2022-09-25T15:51:50;98280.31;;;9.03;nan
63287;BME280;49410;55.708;37.522;2022-09-25T15:54:36;98287.72;;;9.09;nan
63287;BME280;49410;55.708;37.522;2022-09-25T15:57:05;98277.78;;;9.01;nan
63287;BME280;49410;55.708;37.522;2022-09-25T15:59:37;98289.19;;;9.12;nan
63287;BME280;49410;55.708;37.522;2022-09-25T16:02:24;98285.63;;;9.11;nan
63287;BME280;49410;55.708;37.522;2022-09-25T16:05:10;98273.63;;;9.06;nan
63287;BME280;49410;55.708;37.522;2022-09-25T16:07:38;98273.25;;;9.09;nan
63287;BME280;49410;55.708;37.522;2022-09-25T16:12:43;98285.72;;;9.18;nan
63287;BME280;49410;55.708;37.522;2022-09-25T16:18:02;98276.81;;;9.09;nan
63287;BME280;49410;55.708;37.522;2022-09-25T16:20:44;98271.09;;;9.04;nan
63287;BME280;49410;55.708;37.522;2022-09-25T16:23:39;98285.44;;;9.13;nan
63287;BME280;49410;55.708;37.522;2022-09-25T16:26:36;98279.31;;;9.11;nan
63287;BME280;49410;55.708;37.522;2022-09-25T16:31:33;98272.81;;;9.05;nan
63287;BME280;49410;55.708;37.522;2022-09-25T16:34:00;98277.66;;;9.10;nan